Overview Statistics Trail Chart Weather Telemetry Raw packets
 

This is the latest recevied weather packets stored in our database for station/object R2AKT-13. If no packets are shown the sender has not sent any weather packets the latest 10 day(s).

<< 14 15 16 17 18 19 20 >>
Time Temp. Humidity Pressure Rain* Wind** Luminosity Snow
1788513271 18.89° C 51% 988.2 hPa - 0.45 m/s, 255° - -
1788512686 18.89° C 52% 988.2 hPa - 0.45 m/s, 192° - -
1788512161 18.33° C 54% 988.2 hPa - 0.45 m/s, 257° - -
1788511666 18.89° C 52% 988.3 hPa - 0.45 m/s, 244° - -
1788511111 18.33° C 53% 988.4 hPa - 0.89 m/s, 227° - -
1788510526 19.44° C 52% 988.4 hPa - 0.89 m/s, 158° - -
1788509951 17.78° C 54% 988.5 hPa - 0 m/s - -
1788509411 18.89° C 56% 988.5 hPa - 0 m/s - -
1788508926 18.33° C 57% 988.5 hPa - 0.45 m/s, 224° - -
1788508446 17.22° C 56% 988.6 hPa - 0.45 m/s, 264° - -
1788507946 17.78° C 57% 988.6 hPa - 0.89 m/s, 267° - -
1788507426 17.78° C 58% 988.8 hPa - 0.45 m/s, 244° - -
1788506936 16.67° C 61% 988.8 hPa - 0.45 m/s, 249° - -
1788506361 16.67° C 61% 988.9 hPa - 0.45 m/s, 267° - -
1788505766 16.67° C 63% 988.9 hPa - 0 m/s - -
1788505166 16.11° C 64% 989 hPa - 0.45 m/s, 253° - -
1788504616 16.11° C 64% 989 hPa - 0 m/s - -
1788504101 16.67° C 66% 989 hPa - 0.45 m/s, 255° - -
1788503596 16.67° C 65% 989 hPa - 0.45 m/s, 248° - -
1788503065 16.67° C 66% 989 hPa - 0.45 m/s, 257° - -
1788502491 16.67° C 66% 989 hPa - 0 m/s - -
1788501981 16.67° C 67% 988.9 hPa - 0 m/s - -
1788501426 16.11° C 69% 989 hPa - 0 m/s - -
1788500946 16.11° C 69% 989 hPa - 0.45 m/s, 175° - -
1788500436 15.56° C 72% 988.9 hPa - 0 m/s - -

* Rain since midnight (hover to see other rain measurements)
** Current wind speed in m/s (hover to see current wind gust speed)